Time;durP1;ratioP1;P1;durP2;ratioP2;P2;SDS_P1;SDS_P2;PMS_P1;PMS_P2;Temp;Humidity;BMP_temperature;BMP_pressure;BME280_temperature;BME280_humidity;BME280_pressure;Samples;Min_cycle;Max_cycle;Signal;HPM_P1;HPM_P2
2022/06/20 00:01:22;;;;;;;3.30;2.80;;;;;;;;;;5012590;28;20052;-70
2022/06/20 00:03:48;;;;;;;3.88;2.65;;;;;;;;;;5013242;28;20026;-71
2022/06/20 00:06:16;;;;;;;5.05;3.03;;;;;;;;;;5006914;28;20022;-70
2022/06/20 00:08:44;;;;;;;6.05;2.75;;;;;;;;;;5007806;28;20424;-71
2022/06/20 00:11:19;;;;;;;5.70;2.90;;;;;;;;;;5003744;28;20032;-71
2022/06/20 00:13:46;;;;;;;3.90;2.80;;;;;;;;;;5010353;28;20054;-71
2022/06/20 00:16:14;;;;;;;4.30;2.90;;;;;;;;;;5007484;28;20542;-70
2022/06/20 00:18:40;;;;;;;5.88;2.90;;;;;;;;;;5010644;28;20045;-72
2022/06/20 00:21:07;;;;;;;5.35;3.40;;;;;;;;;;5001393;28;20070;-70
2022/06/20 00:23:33;;;;;;;6.93;3.35;;;;;;;;;;5014203;28;20033;-69
2022/06/20 00:25:59;;;;;;;3.92;3.03;;;;;;;;;;5012320;28;20468;-70
2022/06/20 00:28:25;;;;;;;5.47;2.95;;;;;;;;;;5008368;28;20483;-70
2022/06/20 00:30:51;;;;;;;4.53;2.90;;;;;;;;;;5002274;28;20022;-70
2022/06/20 00:33:17;;;;;;;7.25;3.50;;;;;;;;;;5012165;28;20026;-70
2022/06/20 00:35:43;;;;;;;5.03;3.33;;;;;;;;;;5013037;28;20022;-70
2022/06/20 00:38:14;;;;;;;5.38;3.05;;;;;;;;;;5004606;28;20047;-71
2022/06/20 00:40:45;;;;;;;6.60;3.25;;;;;;;;;;5007991;28;20018;-70
2022/06/20 00:43:14;;;;;;;4.50;3.00;;;;;;;;;;5011352;28;20072;-71
2022/06/20 00:45:42;;;;;;;3.92;3.10;;;;;;;;;;5007659;28;20472;-70
2022/06/20 00:48:15;;;;;;;4.15;3.15;;;;;;;;;;5010298;28;20029;-70
2022/06/20 00:50:41;;;;;;;4.10;2.70;;;;;;;;;;5002882;28;20131;-70
2022/06/20 00:53:21;;;;;;;4.18;3.00;;;;;;;;;;5005781;28;20026;-70
2022/06/20 00:55:52;;;;;;;4.32;3.40;;;;;;;;;;5004968;28;20063;-71
2022/06/20 00:58:34;;;;;;;4.97;2.97;;;;;;;;;;5021673;28;20513;-70
2022/06/20 01:01:00;;;;;;;4.60;2.97;;;;;;;;;;5008474;28;20068;-70
2022/06/20 01:03:33;;;;;;;4.15;2.85;;;;;;;;;;5010629;28;20030;-70
2022/06/20 01:06:14;;;;;;;4.35;3.10;;;;;;;;;;5002776;28;20018;-70
2022/06/20 01:08:56;;;;;;;6.38;3.08;;;;;;;;;;5014334;28;20030;-70
2022/06/20 01:11:24;;;;;;;4.65;2.92;;;;;;;;;;5003475;28;20026;-70
2022/06/20 01:13:51;;;;;;;5.10;3.20;;;;;;;;;;5010633;28;20390;-70
2022/06/20 01:16:17;;;;;;;4.38;2.85;;;;;;;;;;5011094;28;20033;-70
2022/06/20 01:18:44;;;;;;;6.22;2.97;;;;;;;;;;5002596;28;20038;-70
2022/06/20 01:21:12;;;;;;;4.55;2.88;;;;;;;;;;5005954;28;20041;-70
2022/06/20 01:23:58;;;;;;;3.75;3.00;;;;;;;;;;5017056;28;20061;-69
2022/06/20 01:26:40;;;;;;;4.65;2.72;;;;;;;;;;5007542;28;20022;-71
2022/06/20 01:29:08;;;;;;;4.13;2.72;;;;;;;;;;5012189;28;20049;-70
2022/06/20 01:31:45;;;;;;;3.25;2.80;;;;;;;;;;5010729;28;20045;-70
2022/06/20 01:34:13;;;;;;;4.82;3.13;;;;;;;;;;5003999;28;20026;-69
2022/06/20 01:39:26;;;;;;;4.05;2.83;;;;;;;;;;5011858;28;20052;-70
2022/06/20 01:44:38;;;;;;;3.33;2.65;;;;;;;;;;5010937;28;20530;-70
2022/06/20 01:47:04;;;;;;;3.78;2.80;;;;;;;;;;5005926;28;20048;-71
2022/06/20 01:49:31;;;;;;;4.18;2.80;;;;;;;;;;5003896;28;20037;-70
2022/06/20 01:52:09;;;;;;;4.18;2.88;;;;;;;;;;5011448;28;20064;-70
2022/06/20 01:54:40;;;;;;;6.22;2.85;;;;;;;;;;5002842;28;20535;-70
2022/06/20 01:57:08;;;;;;;4.50;2.75;;;;;;;;;;5000070;28;20061;-70
2022/06/20 01:59:45;;;;;;;5.53;2.90;;;;;;;;;;5003226;28;20017;-70
2022/06/20 02:02:11;;;;;;;2.90;2.60;;;;;;;;;;5009644;28;20096;-70
2022/06/20 02:04:38;;;;;;;4.03;2.72;;;;;;;;;;5004627;28;20038;-70
2022/06/20 02:07:07;;;;;;;3.38;2.60;;;;;;;;;;5000724;28;20018;-70
2022/06/20 02:09:33;;;;;;;4.47;3.00;;;;;;;;;;5001737;28;20080;-70
2022/06/20 02:12:00;;;;;;;4.30;2.95;;;;;;;;;;5007566;28;20060;-70
2022/06/20 02:14:32;;;;;;;2.85;2.58;;;;;;;;;;5010830;28;20034;-70
2022/06/20 02:17:00;;;;;;;7.03;2.72;;;;;;;;;;5006290;28;20029;-70
2022/06/20 02:19:29;;;;;;;4.13;2.55;;;;;;;;;;5006968;28;20433;-70
2022/06/20 02:22:03;;;;;;;2.97;2.67;;;;;;;;;;5005397;28;20042;-70
2022/06/20 02:24:31;;;;;;;3.30;2.70;;;;;;;;;;5005676;28;20038;-70
2022/06/20 02:27:01;;;;;;;4.45;2.88;;;;;;;;;;5002571;28;20018;-70
2022/06/20 02:29:29;;;;;;;4.57;2.83;;;;;;;;;;5001264;28;20027;-70
2022/06/20 02:32:00;;;;;;;4.30;3.03;;;;;;;;;;4999101;28;20037;-70
2022/06/20 02:34:28;;;;;;;4.50;2.70;;;;;;;;;;5007334;28;20080;-70
2022/06/20 02:36:55;;;;;;;5.75;3.08;;;;;;;;;;5002784;28;20468;-70
2022/06/20 02:39:21;;;;;;;4.10;2.72;;;;;;;;;;5008569;28;20384;-70
2022/06/20 02:41:51;;;;;;;5.53;2.70;;;;;;;;;;5008540;28;20041;-70
2022/06/20 02:44:18;;;;;;;2.90;2.60;;;;;;;;;;4999854;28;20034;-70
2022/06/20 02:46:46;;;;;;;4.43;2.65;;;;;;;;;;5009822;28;20037;-70
2022/06/20 02:49:13;;;;;;;4.45;2.80;;;;;;;;;;5004238;28;20018;-70
2022/06/20 02:51:42;;;;;;;7.55;2.80;;;;;;;;;;4997611;28;20052;-70
2022/06/20 02:54:11;;;;;;;6.68;2.90;;;;;;;;;;5010404;28;20022;-70
2022/06/20 02:56:42;;;;;;;3.85;2.70;;;;;;;;;;5008944;28;20030;-70
2022/06/20 02:59:14;;;;;;;5.30;2.80;;;;;;;;;;5000728;28;20042;-71
2022/06/20 03:01:46;;;;;;;3.92;2.88;;;;;;;;;;5008456;28;20029;-70
2022/06/20 03:04:12;;;;;;;4.80;2.63;;;;;;;;;;5003621;28;20026;-70
2022/06/20 03:06:42;;;;;;;4.10;2.67;;;;;;;;;;5009573;28;20033;-70
2022/06/20 03:09:10;;;;;;;3.67;2.80;;;;;;;;;;5002083;28;20018;-70
2022/06/20 03:11:37;;;;;;;4.40;2.65;;;;;;;;;;5012554;28;20038;-70
2022/06/20 03:14:05;;;;;;;3.15;2.70;;;;;;;;;;5009094;28;20033;-70
2022/06/20 03:16:32;;;;;;;5.22;2.70;;;;;;;;;;5004558;28;20061;-70
2022/06/20 03:18:58;;;;;;;4.50;2.92;;;;;;;;;;5006723;28;20042;-70
2022/06/20 03:21:26;;;;;;;4.28;2.72;;;;;;;;;;5004371;28;20100;-70
2022/06/20 03:23:52;;;;;;;2.75;2.55;;;;;;;;;;5004875;28;20030;-69
2022/06/20 03:26:20;;;;;;;3.40;2.72;;;;;;;;;;4998225;28;20496;-70
2022/06/20 03:28:46;;;;;;;5.03;2.92;;;;;;;;;;4998651;28;20037;-69
2022/06/20 03:31:12;;;;;;;3.97;2.97;;;;;;;;;;5004929;28;20022;-70
2022/06/20 03:33:39;;;;;;;3.20;2.90;;;;;;;;;;4999095;28;20034;-70
2022/06/20 03:36:05;;;;;;;8.10;3.40;;;;;;;;;;5004949;28;20362;-70
2022/06/20 03:38:33;;;;;;;4.22;3.13;;;;;;;;;;4995040;28;20486;-70
2022/06/20 03:40:59;;;;;;;4.88;3.30;;;;;;;;;;5005167;28;20034;-69
2022/06/20 03:43:26;;;;;;;5.75;3.33;;;;;;;;;;5007320;28;20598;-69
2022/06/20 03:46:04;;;;;;;5.00;3.78;;;;;;;;;;5006137;28;20034;-70
2022/06/20 03:48:36;;;;;;;6.68;3.70;;;;;;;;;;5004946;28;20025;-70
2022/06/20 03:51:06;;;;;;;5.32;3.30;;;;;;;;;;5012426;28;20018;-70
2022/06/20 03:53:46;;;;;;;5.80;4.13;;;;;;;;;;5007556;28;20395;-68
2022/06/20 03:56:20;;;;;;;5.07;3.60;;;;;;;;;;5006337;28;20040;-70
2022/06/20 03:58:53;;;;;;;6.43;3.90;;;;;;;;;;5010347;28;20634;-70
2022/06/20 04:01:26;;;;;;;6.10;3.90;;;;;;;;;;5011877;28;20022;-70
2022/06/20 04:03:52;;;;;;;4.25;3.60;;;;;;;;;;5010795;28;20118;-70
2022/06/20 04:06:32;;;;;;;5.40;3.60;;;;;;;;;;5012975;28;20554;-71
2022/06/20 04:11:52;;;;;;;11.32;4.20;;;;;;;;;;5009795;28;20455;-70
2022/06/20 04:14:25;;;;;;;5.53;3.78;;;;;;;;;;4998838;28;20538;-69
2022/06/20 04:16:55;;;;;;;5.32;3.85;;;;;;;;;;5003970;28;20088;-70
2022/06/20 04:19:34;;;;;;;6.47;4.00;;;;;;;;;;5008006;28;20190;-70
2022/06/20 04:22:12;;;;;;;6.25;3.80;;;;;;;;;;4999334;28;20151;-69
2022/06/20 04:24:43;;;;;;;7.20;3.78;;;;;;;;;;5005419;28;20475;-70
2022/06/20 04:27:20;;;;;;;5.75;4.03;;;;;;;;;;5005880;28;20091;-70
2022/06/20 04:29:49;;;;;;;7.03;4.28;;;;;;;;;;5014977;28;20115;-69
2022/06/20 04:32:18;;;;;;;9.02;4.38;;;;;;;;;;5006869;28;20061;-69
2022/06/20 04:34:48;;;;;;;6.43;4.07;;;;;;;;;;5002190;28;20100;-70
2022/06/20 04:37:23;;;;;;;9.13;4.10;;;;;;;;;;5007389;28;20022;-70
2022/06/20 04:40:04;;;;;;;7.00;3.78;;;;;;;;;;5008377;28;20464;-70
2022/06/20 04:42:43;;;;;;;7.38;4.30;;;;;;;;;;5005704;28;20030;-69
2022/06/20 04:45:14;;;;;;;8.05;4.07;;;;;;;;;;5006603;28;20030;-70
2022/06/20 04:47:48;;;;;;;8.65;4.28;;;;;;;;;;5004301;28;20393;-71
2022/06/20 04:50:16;;;;;;;5.95;4.20;;;;;;;;;;5001845;28;20117;-71
2022/06/20 04:52:42;;;;;;;9.07;4.35;;;;;;;;;;5005799;28;20030;-69
2022/06/20 04:55:13;;;;;;;6.10;4.18;;;;;;;;;;5010479;28;20030;-69
2022/06/20 04:57:39;;;;;;;7.05;4.05;;;;;;;;;;5003669;28;20092;-70
2022/06/20 05:00:09;;;;;;;10.02;4.05;;;;;;;;;;5014183;28;20561;-69
2022/06/20 05:02:36;;;;;;;6.05;3.65;;;;;;;;;;4997589;28;22026;-70
2022/06/20 05:05:04;;;;;;;6.03;4.20;;;;;;;;;;5004120;28;20048;-70
2022/06/20 05:07:35;;;;;;;10.18;5.50;;;;;;;;;;5006566;28;20361;-84
2022/06/20 05:10:17;;;;;;;20.52;6.53;;;;;;;;;;5008100;28;20030;-77
2022/06/20 05:13:21;;;;;;;17.80;7.40;;;;;;;;;;5007426;28;20049;-75
2022/06/20 05:15:49;;;;;;;11.10;6.90;;;;;;;;;;4951361;28;20110;-87
2022/06/20 05:18:24;;;;;;;15.35;7.47;;;;;;;;;;4956633;28;20043;-80
2022/06/20 05:20:53;;;;;;;11.35;6.63;;;;;;;;;;4950071;28;20047;-84
2022/06/20 05:23:24;;;;;;;26.45;6.70;;;;;;;;;;4955253;28;20025;-83
2022/06/20 05:25:51;;;;;;;9.82;4.60;;;;;;;;;;4947179;28;20645;-80
2022/06/20 05:28:19;;;;;;;10.68;5.32;;;;;;;;;;4952069;28;20492;-81
2022/06/20 05:30:45;;;;;;;14.75;5.82;;;;;;;;;;4953795;28;20042;-78
2022/06/20 05:33:11;;;;;;;7.10;4.80;;;;;;;;;;4954670;28;20039;-72
2022/06/20 05:35:46;;;;;;;8.00;4.43;;;;;;;;;;4951667;28;20202;-76
2022/06/20 05:38:14;;;;;;;22.17;5.68;;;;;;;;;;4946114;28;20101;-74
2022/06/20 05:40:44;;;;;;;10.50;4.72;;;;;;;;;;4956987;28;20110;-76
2022/06/20 05:43:16;;;;;;;9.48;4.25;;;;;;;;;;4952113;28;20071;-80
2022/06/20 05:45:42;;;;;;;6.03;4.20;;;;;;;;;;4956496;28;20084;-71
2022/06/20 05:48:12;;;;;;;6.95;4.20;;;;;;;;;;5006679;28;20104;-73
2022/06/20 05:50:42;;;;;;;9.45;4.57;;;;;;;;;;5010123;28;20026;-80
2022/06/20 05:53:13;;;;;;;9.60;5.35;;;;;;;;;;5010639;28;20053;-76
2022/06/20 05:55:42;;;;;;;12.48;6.05;;;;;;;;;;5004983;28;20074;-76
2022/06/20 05:58:11;;;;;;;12.55;5.68;;;;;;;;;;5006584;28;20042;-70
2022/06/20 06:00:37;;;;;;;9.10;5.70;;;;;;;;;;5013113;28;20045;-71
2022/06/20 06:03:06;;;;;;;15.93;5.60;;;;;;;;;;5005211;28;20022;-71
2022/06/20 06:05:47;;;;;;;13.38;5.00;;;;;;;;;;5009379;28;20026;-72
2022/06/20 06:08:32;;;;;;;9.93;4.90;;;;;;;;;;5005122;28;20077;-73
2022/06/20 06:11:09;;;;;;;15.52;5.05;;;;;;;;;;5008193;28;20101;-72
2022/06/20 06:13:38;;;;;;;16.13;5.47;;;;;;;;;;5010228;28;20026;-73
2022/06/20 06:18:55;;;;;;;10.98;4.03;;;;;;;;;;5009473;28;20052;-74
2022/06/20 06:21:22;;;;;;;8.32;4.05;;;;;;;;;;5009524;28;20446;-73
2022/06/20 06:23:48;;;;;;;11.43;4.40;;;;;;;;;;5005818;28;20084;-76
2022/06/20 06:26:16;;;;;;;7.60;3.60;;;;;;;;;;5003428;28;20033;-74
2022/06/20 06:28:42;;;;;;;9.40;4.28;;;;;;;;;;5004967;28;20105;-73
2022/06/20 06:31:21;;;;;;;14.93;4.47;;;;;;;;;;5005044;28;20030;-73
2022/06/20 06:33:51;;;;;;;16.92;4.50;;;;;;;;;;5002469;28;20116;-70
2022/06/20 06:36:26;;;;;;;11.13;4.50;;;;;;;;;;5004331;28;20448;-73
2022/06/20 06:39:05;;;;;;;11.02;4.35;;;;;;;;;;5008253;28;20037;-73
2022/06/20 06:41:33;;;;;;;12.13;6.20;;;;;;;;;;5010862;28;20065;-75
2022/06/20 06:44:01;;;;;;;16.45;9.27;;;;;;;;;;5005049;28;20026;-75
2022/06/20 06:46:41;;;;;;;23.98;11.18;;;;;;;;;;5010333;28;20022;-70
2022/06/20 06:49:13;;;;;;;32.03;9.63;;;;;;;;;;5004836;28;20025;-74
2022/06/20 06:51:59;;;;;;;9.05;5.85;;;;;;;;;;5009748;28;20388;-73
2022/06/20 06:54:46;;;;;;;10.70;5.03;;;;;;;;;;5008050;28;20119;-77
2022/06/20 06:57:21;;;;;;;11.70;4.82;;;;;;;;;;5000375;28;20543;-75
2022/06/20 07:00:13;;;;;;;20.10;5.00;;;;;;;;;;5008007;28;20053;-76
2022/06/20 07:02:52;;;;;;;9.18;4.05;;;;;;;;;;5001119;28;20061;-78
2022/06/20 07:05:21;;;;;;;30.70;5.78;;;;;;;;;;5009874;28;20072;-75
2022/06/20 07:07:53;;;;;;;9.80;4.10;;;;;;;;;;5007001;28;20033;-75
2022/06/20 07:10:25;;;;;;;5.72;3.90;;;;;;;;;;5006666;28;20026;-75
2022/06/20 07:12:55;;;;;;;21.35;4.35;;;;;;;;;;5001892;28;20436;-74
2022/06/20 07:15:23;;;;;;;8.75;4.32;;;;;;;;;;5004710;28;20025;-75
2022/06/20 07:18:02;;;;;;;8.90;3.78;;;;;;;;;;5003754;28;20042;-75
2022/06/20 07:20:30;;;;;;;5.18;3.70;;;;;;;;;;5010037;28;20030;-78
2022/06/20 07:22:58;;;;;;;7.57;4.65;;;;;;;;;;5016847;28;20033;-76
2022/06/20 07:25:35;;;;;;;11.38;5.18;;;;;;;;;;5013375;28;20076;-81
2022/06/20 07:28:27;;;;;;;7.43;3.80;;;;;;;;;;5012598;28;20033;-84
2022/06/20 07:30:53;;;;;;;;;;;;;;;;;;4996777;28;20144;-73
2022/06/20 07:33:30;;;;;;;12.60;4.40;;;;;;;;;;5012654;28;20427;-77
2022/06/20 07:35:58;;;;;;;18.15;5.13;;;;;;;;;;5007662;28;20071;-77
2022/06/20 07:38:40;;;;;;;140.80;13.05;;;;;;;;;;5006754;28;20492;-79
2022/06/20 07:41:09;;;;;;;40.60;6.13;;;;;;;;;;5002593;28;20038;-73
2022/06/20 07:43:35;;;;;;;11.65;3.80;;;;;;;;;;5011325;28;20033;-71
2022/06/20 07:46:06;;;;;;;9.32;3.28;;;;;;;;;;5013122;28;20072;-71
2022/06/20 07:48:40;;;;;;;5.28;3.10;;;;;;;;;;5009062;28;20411;-78
2022/06/20 07:51:06;;;;;;;13.93;3.88;;;;;;;;;;5010718;28;20042;-75
2022/06/20 07:53:42;;;;;;;5.95;3.03;;;;;;;;;;5012130;28;20014;-72
2022/06/20 07:56:19;;;;;;;31.05;8.30;;;;;;;;;;5009506;28;20071;-71
2022/06/20 07:58:52;;;;;;;13.32;5.97;;;;;;;;;;5012929;28;20055;-70
2022/06/20 08:01:24;;;;;;;3.70;2.30;;;;;;;;;;5011400;28;20030;-70
2022/06/20 08:03:54;;;;;;;26.77;11.98;;;;;;;;;;5008237;28;20486;-71
2022/06/20 08:06:32;;;;;;;8.23;2.75;;;;;;;;;;5007942;28;20033;-72
2022/06/20 08:09:02;;;;;;;17.00;4.00;;;;;;;;;;5012825;28;20022;-72
2022/06/20 08:11:42;;;;;;;14.88;3.50;;;;;;;;;;5013091;28;20076;-73
2022/06/20 08:14:17;;;;;;;8.65;3.08;;;;;;;;;;5012081;28;20036;-70
2022/06/20 08:16:44;;;;;;;17.38;3.22;;;;;;;;;;5011958;28;20028;-75
2022/06/20 08:19:11;;;;;;;4.57;2.63;;;;;;;;;;5010443;28;20030;-70
2022/06/20 08:21:40;;;;;;;5.05;2.50;;;;;;;;;;5013220;28;20388;-74
2022/06/20 08:24:13;;;;;;;9.75;3.30;;;;;;;;;;5011809;28;20492;-75
2022/06/20 08:26:45;;;;;;;10.25;4.10;;;;;;;;;;5010270;28;20038;-70
2022/06/20 08:29:19;;;;;;;7.65;2.35;;;;;;;;;;5010599;28;20476;-83
2022/06/20 08:31:49;;;;;;;6.00;2.60;;;;;;;;;;5004253;28;20503;-81
2022/06/20 08:34:24;;;;;;;7.93;2.50;;;;;;;;;;5007946;28;20148;-82
2022/06/20 08:36:56;;;;;;;13.00;3.45;;;;;;;;;;5006400;28;20080;-70
2022/06/20 08:39:26;;;;;;;20.63;3.55;;;;;;;;;;5006694;28;20053;-71
2022/06/20 08:42:11;;;;;;;6.25;2.53;;;;;;;;;;5006496;28;20487;-75
2022/06/20 08:44:40;;;;;;;7.55;2.53;;;;;;;;;;5010299;28;20068;-76
2022/06/20 08:47:25;;;;;;;48.00;5.43;;;;;;;;;;5006520;28;20057;-74
2022/06/20 08:49:54;;;;;;;3.20;2.50;;;;;;;;;;5011728;28;20033;-76
2022/06/20 08:52:20;;;;;;;6.65;2.50;;;;;;;;;;5010675;28;20033;-75
2022/06/20 08:55:03;;;;;;;6.50;2.30;;;;;;;;;;5008299;28;20053;-74
2022/06/20 08:57:29;;;;;;;4.93;2.47;;;;;;;;;;5010363;28;20057;-75
2022/06/20 08:59:58;;;;;;;5.65;2.70;;;;;;;;;;5010525;28;20038;-75
2022/06/20 09:02:30;;;;;;;11.15;3.17;;;;;;;;;;5011845;28;20053;-74
2022/06/20 09:05:08;;;;;;;14.55;3.20;;;;;;;;;;5002048;28;20080;-69
2022/06/20 09:07:41;;;;;;;5.00;2.60;;;;;;;;;;5007845;28;20038;-77
2022/06/20 09:10:26;;;;;;;7.57;2.95;;;;;;;;;;5011312;28;20052;-69
2022/06/20 09:13:18;;;;;;;4.93;2.75;;;;;;;;;;5006270;28;20034;-74
2022/06/20 09:15:56;;;;;;;6.75;2.83;;;;;;;;;;5007600;28;20034;-68
2022/06/20 09:18:31;;;;;;;5.97;2.50;;;;;;;;;;5010083;28;20041;-70
2022/06/20 09:21:17;;;;;;;3.08;2.40;;;;;;;;;;5008869;28;20045;-77
2022/06/20 09:23:57;;;;;;;5.15;2.67;;;;;;;;;;5009048;28;20034;-74
2022/06/20 09:26:38;;;;;;;4.15;2.30;;;;;;;;;;5011307;28;20026;-72
2022/06/20 09:29:19;;;;;;;9.05;2.72;;;;;;;;;;5009806;28;20494;-73
2022/06/20 09:31:48;;;;;;;37.95;5.80;;;;;;;;;;5016735;28;20088;-69
2022/06/20 09:34:33;;;;;;;72.30;10.38;;;;;;;;;;5008420;28;20023;-71
2022/06/20 09:37:15;;;;;;;5.07;3.08;;;;;;;;;;5012705;28;20036;-71
2022/06/20 09:39:47;;;;;;;15.90;4.78;;;;;;;;;;5001894;28;20037;-70
2022/06/20 09:42:16;;;;;;;15.88;5.03;;;;;;;;;;5014084;28;20026;-71
2022/06/20 09:45:03;;;;;;;12.63;3.30;;;;;;;;;;5004584;28;20037;-74
2022/06/20 09:47:48;;;;;;;9.15;3.70;;;;;;;;;;5005459;28;20030;-74
2022/06/20 09:50:30;;;;;;;3.75;2.83;;;;;;;;;;5006850;28;20026;-67
2022/06/20 09:53:10;;;;;;;14.65;3.78;;;;;;;;;;5007438;28;20025;-73
2022/06/20 09:55:46;;;;;;;5.82;2.72;;;;;;;;;;5001119;28;20033;-72
2022/06/20 09:58:17;;;;;;;9.02;2.90;;;;;;;;;;4997604;28;20026;-74
2022/06/20 10:00:43;;;;;;;8.45;2.63;;;;;;;;;;5004797;28;20105;-74
2022/06/20 10:03:25;;;;;;;3.00;2.17;;;;;;;;;;5009034;28;20109;-70
2022/06/20 10:06:10;;;;;;;7.07;3.10;;;;;;;;;;5007743;28;20026;-72
2022/06/20 10:08:36;;;;;;;7.90;2.80;;;;;;;;;;5005187;28;20041;-72
2022/06/20 10:11:13;;;;;;;10.50;3.40;;;;;;;;;;5003145;28;20025;-73
2022/06/20 10:13:48;;;;;;;5.15;2.50;;;;;;;;;;5005431;28;20048;-67
2022/06/20 10:16:14;;;;;;;5.72;2.38;;;;;;;;;;5003455;28;20029;-73
2022/06/20 10:18:58;;;;;;;12.25;3.10;;;;;;;;;;5008209;28;20034;-68
2022/06/20 10:21:37;;;;;;;10.35;2.83;;;;;;;;;;5004978;28;20056;-68
2022/06/20 10:24:09;;;;;;;4.80;2.67;;;;;;;;;;5007855;28;20438;-67
2022/06/20 10:26:35;;;;;;;5.57;2.97;;;;;;;;;;5004113;28;20080;-70
2022/06/20 10:29:04;;;;;;;5.80;2.80;;;;;;;;;;5009545;28;20152;-78
2022/06/20 10:31:33;;;;;;;6.53;2.88;;;;;;;;;;5007016;28;20030;-70
2022/06/20 10:34:02;;;;;;;3.17;2.47;;;;;;;;;;5008481;28;20026;-85
2022/06/20 10:36:28;;;;;;;3.92;2.60;;;;;;;;;;5006208;28;20033;-70
2022/06/20 10:39:04;;;;;;;4.95;2.70;;;;;;;;;;5007871;28;20258;-76
2022/06/20 10:41:45;;;;;;;7.03;2.75;;;;;;;;;;5005526;28;20534;-80
2022/06/20 10:44:14;;;;;;;4.05;2.80;;;;;;;;;;5010103;28;20034;-66
2022/06/20 10:46:44;;;;;;;3.40;2.75;;;;;;;;;;5005737;28;20030;-67
2022/06/20 10:49:16;;;;;;;5.20;2.63;;;;;;;;;;5003931;28;20595;-70
2022/06/20 10:51:54;;;;;;;4.43;2.67;;;;;;;;;;5010107;28;20034;-71
2022/06/20 10:54:39;;;;;;;6.53;2.95;;;;;;;;;;5002570;28;20447;-74
2022/06/20 10:57:43;;;;;;;5.25;2.70;;;;;;;;;;5004683;28;20036;-76
2022/06/20 11:00:12;;;;;;;14.70;3.03;;;;;;;;;;4972430;28;20050;-76
2022/06/20 11:03:01;;;;;;;4.25;2.70;;;;;;;;;;4956955;28;20022;-73
2022/06/20 11:05:31;;;;;;;7.57;3.40;;;;;;;;;;4973044;28;20038;-75
2022/06/20 11:07:59;;;;;;;4.43;2.95;;;;;;;;;;4970216;28;20026;-73
2022/06/20 11:10:31;;;;;;;3.33;2.65;;;;;;;;;;4972239;28;20039;-77
2022/06/20 11:13:10;;;;;;;4.23;2.80;;;;;;;;;;4956906;28;20070;-81
2022/06/20 11:15:43;;;;;;;4.68;3.15;;;;;;;;;;4956610;28;20035;-75
2022/06/20 11:18:21;;;;;;;6.57;4.10;;;;;;;;;;4972589;28;20094;-77
2022/06/20 11:20:58;;;;;;;7.50;3.00;;;;;;;;;;4973177;28;20477;-79
2022/06/20 11:23:29;;;;;;;4.38;2.58;;;;;;;;;;4974822;28;20033;-85
2022/06/20 11:25:58;;;;;;;3.03;2.72;;;;;;;;;;4973807;28;20027;-87
2022/06/20 11:28:30;;;;;;;11.07;3.35;;;;;;;;;;4973235;28;20038;-69
2022/06/20 11:31:08;;;;;;;7.78;3.05;;;;;;;;;;4991383;28;20077;-75
2022/06/20 11:36:18;;;;;;;7.93;2.95;;;;;;;;;;5010228;28;20124;-74
2022/06/20 11:38:47;;;;;;;4.82;2.70;;;;;;;;;;5008818;28;20030;-79
2022/06/20 11:41:15;;;;;;;4.57;2.75;;;;;;;;;;5008783;28;20018;-72
2022/06/20 11:43:51;;;;;;;8.40;2.80;;;;;;;;;;5006242;28;20033;-69
2022/06/20 11:46:30;;;;;;;4.03;2.50;;;;;;;;;;5007019;28;20037;-76
2022/06/20 11:49:22;;;;;;;12.45;3.30;;;;;;;;;;5009728;28;20036;-75
2022/06/20 11:51:51;;;;;;;14.93;3.47;;;;;;;;;;5002590;28;20046;-69
2022/06/20 11:54:23;;;;;;;5.53;2.83;;;;;;;;;;5005630;28;20026;-67
2022/06/20 11:57:28;;;;;;;4.90;2.87;;;;;;;;;;5006725;28;20029;-73
2022/06/20 12:00:00;;;;;;;3.85;2.67;;;;;;;;;;4960560;28;20344;-71
2022/06/20 12:02:35;;;;;;;7.28;2.70;;;;;;;;;;4964188;28;20041;-73
2022/06/20 12:05:19;;;;;;;10.60;3.38;;;;;;;;;;4959812;28;20035;-73
2022/06/20 12:07:49;;;;;;;5.72;3.00;;;;;;;;;;4965373;28;20034;-69
2022/06/20 12:23:49;;;;;;;5.65;2.67;;;;;;;;;;5087790;28;20042;-69
2022/06/20 12:26:15;;;;;;;10.57;2.88;;;;;;;;;;5089383;28;20051;-73
2022/06/20 12:28:45;;;;;;;16.92;3.58;;;;;;;;;;5088284;28;20500;-69
2022/06/20 12:31:30;;;;;;;21.58;4.03;;;;;;;;;;5087553;28;20128;-71
2022/06/20 12:34:01;;;;;;;3.00;2.55;;;;;;;;;;5069609;28;20432;-69
2022/06/20 12:36:43;;;;;;;3.28;2.55;;;;;;;;;;5056635;28;20039;-68
2022/06/20 12:39:16;;;;;;;6.30;2.88;;;;;;;;;;5084315;28;20513;-71
2022/06/20 12:41:42;;;;;;;;;;;;;;;;;;5080981;28;20035;-67
2022/06/20 12:44:17;;;;;;;5.45;2.85;;;;;;;;;;5081283;28;20413;-69
2022/06/20 12:47:02;;;;;;;7.28;2.70;;;;;;;;;;5085465;28;20508;-68
2022/06/20 12:49:34;;;;;;;6.53;3.08;;;;;;;;;;5083883;28;20109;-68
2022/06/20 12:52:00;;;;;;;5.68;3.15;;;;;;;;;;5083449;28;20020;-68
2022/06/20 12:54:26;;;;;;;8.88;3.30;;;;;;;;;;5085290;28;20034;-68
2022/06/20 12:57:09;;;;;;;7.38;3.17;;;;;;;;;;5085120;28;20029;-68
2022/06/20 12:59:51;;;;;;;5.65;3.05;;;;;;;;;;5082737;28;20040;-72
2022/06/20 13:02:27;;;;;;;7.18;3.20;;;;;;;;;;5080290;28;20102;-68
2022/06/20 13:05:16;;;;;;;9.82;3.65;;;;;;;;;;5081301;28;20551;-69
2022/06/20 13:07:44;;;;;;;6.40;2.90;;;;;;;;;;5096037;28;20492;-68
2022/06/20 13:10:29;;;;;;;5.57;3.10;;;;;;;;;;5100023;28;20036;-70
2022/06/20 13:13:07;;;;;;;4.18;2.83;;;;;;;;;;5084740;28;20437;-68
2022/06/20 13:15:48;;;;;;;6.22;3.33;;;;;;;;;;5087061;28;20037;-69
2022/06/20 13:18:21;;;;;;;8.95;3.45;;;;;;;;;;5085027;28;20036;-69
2022/06/20 13:20:56;;;;;;;7.15;3.22;;;;;;;;;;5075113;28;20111;-68
2022/06/20 13:23:31;;;;;;;4.55;3.13;;;;;;;;;;5071522;28;20571;-74
2022/06/20 13:26:02;;;;;;;4.07;2.97;;;;;;;;;;5071201;28;20029;-74
2022/06/20 13:28:47;;;;;;;5.15;3.20;;;;;;;;;;5076882;28;20024;-73
2022/06/20 13:31:20;;;;;;;4.88;2.83;;;;;;;;;;5068581;28;20029;-77
2022/06/20 13:34:11;;;;;;;9.10;3.22;;;;;;;;;;5070950;28;20041;-77
2022/06/20 13:36:39;;;;;;;3.72;2.80;;;;;;;;;;5069481;28;20086;-78
2022/06/20 13:39:12;;;;;;;4.57;2.70;;;;;;;;;;5087732;27;20044;-76
2022/06/20 13:41:38;;;;;;;;;;;;;;;;;;5072276;28;20379;-75
2022/06/20 13:44:19;;;;;;;6.65;2.92;;;;;;;;;;5072382;28;19970;-76
2022/06/20 13:46:48;;;;;;;4.07;2.80;;;;;;;;;;5070456;28;20027;-77
2022/06/20 13:49:27;;;;;;;3.92;2.80;;;;;;;;;;5069165;28;20033;-71
2022/06/20 13:51:56;;;;;;;3.75;2.58;;;;;;;;;;5080769;28;20051;-85
2022/06/20 13:54:25;;;;;;;4.18;2.75;;;;;;;;;;5075099;28;20032;-79
2022/06/20 13:56:51;;;;;;;5.32;3.10;;;;;;;;;;5084867;28;20542;-76
2022/06/20 13:59:26;;;;;;;8.70;2.80;;;;;;;;;;5083582;28;20043;-85
2022/06/20 14:01:57;;;;;;;4.43;2.83;;;;;;;;;;5080296;28;20042;-74
2022/06/20 14:04:23;;;;;;;5.72;2.85;;;;;;;;;;5078502;28;20031;-71
2022/06/20 14:06:54;;;;;;;6.75;2.90;;;;;;;;;;5073039;28;20420;-70
2022/06/20 14:09:25;;;;;;;8.13;3.20;;;;;;;;;;5073506;28;20098;-73
2022/06/20 14:11:53;;;;;;;4.57;2.70;;;;;;;;;;5073113;28;20027;-74
2022/06/20 14:14:25;;;;;;;6.38;2.78;;;;;;;;;;5074039;28;20111;-70
2022/06/20 14:16:53;;;;;;;10.10;3.07;;;;;;;;;;5074730;28;20029;-73
2022/06/20 14:19:21;;;;;;;5.97;2.92;;;;;;;;;;5069801;28;20041;-86
2022/06/20 14:21:49;;;;;;;6.05;2.85;;;;;;;;;;5086715;28;20037;-82
2022/06/20 14:24:22;;;;;;;5.13;2.60;;;;;;;;;;5073447;28;20021;-75
2022/06/20 14:26:56;;;;;;;11.13;3.20;;;;;;;;;;5077951;28;20432;-81
2022/06/20 14:29:24;;;;;;;10.00;2.80;;;;;;;;;;5072456;28;20312;-83
2022/06/20 14:31:50;;;;;;;8.77;4.07;;;;;;;;;;5087917;28;20033;-72
2022/06/20 14:34:22;;;;;;;8.35;5.45;;;;;;;;;;5071564;28;20066;-71
2022/06/20 14:36:52;;;;;;;3.40;2.40;;;;;;;;;;5078437;28;20020;-81
2022/06/20 14:39:20;;;;;;;4.25;2.72;;;;;;;;;;5069566;28;20029;-70
2022/06/20 14:42:10;;;;;;;7.55;2.70;;;;;;;;;;5076702;28;20020;-70
2022/06/20 14:44:52;;;;;;;5.88;2.60;;;;;;;;;;5071486;28;20482;-79
2022/06/20 14:47:24;;;;;;;7.75;2.67;;;;;;;;;;5069129;28;20028;-80
2022/06/20 14:50:00;;;;;;;3.60;2.50;;;;;;;;;;5070138;28;20044;-73
2022/06/20 14:52:45;;;;;;;5.82;2.40;;;;;;;;;;5073238;28;20461;-68
2022/06/20 14:55:22;;;;;;;4.75;2.50;;;;;;;;;;5071657;28;20437;-68
2022/06/20 14:57:55;;;;;;;8.80;3.22;;;;;;;;;;5070362;28;20051;-69
2022/06/20 15:00:21;;;;;;;;;;;;;;;;;;5079444;28;20016;-68
2022/06/20 15:02:50;;;;;;;15.60;3.50;;;;;;;;;;5071015;28;19915;-68
2022/06/20 15:05:16;;;;;;;9.05;2.70;;;;;;;;;;5069839;28;20028;-67
2022/06/20 15:08:02;;;;;;;4.38;2.42;;;;;;;;;;5071976;28;20033;-66
2022/06/20 15:10:34;;;;;;;5.65;2.50;;;;;;;;;;5029507;28;20045;-67
2022/06/20 15:13:03;;;;;;;7.60;2.70;;;;;;;;;;5030011;28;20397;-68
2022/06/20 15:15:33;;;;;;;4.82;2.80;;;;;;;;;;5029647;28;20120;-67
2022/06/20 15:18:17;;;;;;;4.90;2.50;;;;;;;;;;5029831;28;20133;-68
2022/06/20 15:20:55;;;;;;;5.63;3.05;;;;;;;;;;5029774;28;20080;-68
2022/06/20 15:23:30;;;;;;;6.50;2.67;;;;;;;;;;5030678;28;20780;-68
2022/06/20 15:26:08;;;;;;;3.97;2.70;;;;;;;;;;5029308;28;20021;-69
2022/06/20 15:28:39;;;;;;;7.55;2.50;;;;;;;;;;5030002;28;20037;-68
2022/06/20 15:31:10;;;;;;;6.97;2.90;;;;;;;;;;5029403;28;20081;-68
2022/06/20 15:33:38;;;;;;;13.98;6.43;;;;;;;;;;5022715;28;20028;-68
2022/06/20 15:36:10;;;;;;;13.40;5.72;;;;;;;;;;5030025;28;20118;-68
2022/06/20 15:38:39;;;;;;;55.35;8.20;;;;;;;;;;5029894;28;20021;-69
2022/06/20 15:41:17;;;;;;;41.60;6.25;;;;;;;;;;5029711;28;20040;-68